createdAt,value
2022-09-20T05:27:47.881Z,14.43
2022-09-20T05:30:42.388Z,13.87
2022-09-20T05:33:09.130Z,14.13
2022-09-20T05:35:49.106Z,14.80
2022-09-20T05:38:42.879Z,14.00
2022-09-20T05:41:56.953Z,13.30
2022-09-20T05:44:43.793Z,13.47
2022-09-20T05:47:23.498Z,13.33
2022-09-20T05:50:16.643Z,13.67
2022-09-20T05:53:24.319Z,14.20
2022-09-20T05:56:27.142Z,13.83
2022-09-20T05:59:21.490Z,13.60
2022-09-20T06:02:25.882Z,13.03
2022-09-20T06:05:01.714Z,13.83
2022-09-20T06:07:34.414Z,14.47
2022-09-20T06:10:15.913Z,13.70
2022-09-20T06:12:54.028Z,14.57
2022-09-20T06:15:41.701Z,14.47
2022-09-20T06:18:32.133Z,14.60
2022-09-20T06:21:43.223Z,15.10
2022-09-20T06:24:40.930Z,15.40
2022-09-20T06:27:22.072Z,14.73
2022-09-20T06:29:54.629Z,15.87
2022-09-20T06:32:21.424Z,14.93
2022-09-20T06:34:50.028Z,16.53
2022-09-20T06:37:45.107Z,16.23
2022-09-20T06:40:58.016Z,17.10
2022-09-20T06:43:24.942Z,17.60
2022-09-20T06:45:51.997Z,17.43
2022-09-20T06:48:19.323Z,17.20
2022-09-20T06:50:46.219Z,16.70
2022-09-20T06:53:18.548Z,17.73
2022-09-20T06:55:47.075Z,17.13
2022-09-20T06:58:13.975Z,17.67
2022-09-20T07:00:41.081Z,18.60
2022-09-20T07:03:08.560Z,17.90
2022-09-20T07:05:36.343Z,17.93
2022-09-20T07:08:03.462Z,18.27
2022-09-20T07:10:30.879Z,18.67
2022-09-20T07:13:02.451Z,16.83
2022-09-20T07:15:32.368Z,18.07
2022-09-20T07:18:02.505Z,17.73
2022-09-20T07:20:29.307Z,18.53
2022-09-20T07:22:56.097Z,17.43
2022-09-20T07:25:23.305Z,17.83
2022-09-20T07:27:50.921Z,18.33
2022-09-20T07:30:19.727Z,17.70
2022-09-20T07:32:46.649Z,18.70
2022-09-20T07:35:13.826Z,19.30
2022-09-20T07:37:41.446Z,17.40
2022-09-20T07:40:10.198Z,16.97
2022-09-20T07:42:37.315Z,16.63
2022-09-20T07:45:04.867Z,16.50
2022-09-20T07:47:35.339Z,16.13
2022-09-20T07:50:02.988Z,16.30
2022-09-20T07:52:29.994Z,16.47
2022-09-20T07:54:56.807Z,16.30
2022-09-20T07:57:23.823Z,16.03
2022-09-20T07:59:50.644Z,16.57
2022-09-20T08:02:17.848Z,15.90
2022-09-20T08:04:44.731Z,15.70
2022-09-20T08:07:12.955Z,16.27
2022-09-20T08:09:39.725Z,16.30
2022-09-20T08:14:57.950Z,14.13
2022-09-20T08:17:27.203Z,14.03
2022-09-20T08:19:55.330Z,14.90
2022-09-20T08:22:23.269Z,16.33
2022-09-20T08:24:51.924Z,15.63
2022-09-20T08:27:19.027Z,16.10
2022-09-20T08:29:45.840Z,14.70
2022-09-20T08:32:13.438Z,15.60
2022-09-20T08:34:40.713Z,16.23
2022-09-20T08:37:07.504Z,15.50
2022-09-20T08:42:28.157Z,15.73
2022-09-20T08:45:05.015Z,15.03
2022-09-20T08:47:36.728Z,15.63
2022-09-20T08:50:11.620Z,16.00
2022-09-20T08:52:40.761Z,16.57
2022-09-20T08:55:21.929Z,15.30
2022-09-20T08:57:55.154Z,16.00
2022-09-20T09:00:32.006Z,15.43
2022-09-20T09:03:03.831Z,14.27
2022-09-20T09:05:44.816Z,13.97
2022-09-20T09:08:39.543Z,13.17
2022-09-20T09:11:12.460Z,13.63
2022-09-20T09:14:35.353Z,14.80
2022-09-20T09:17:02.623Z,15.50
2022-09-20T09:19:54.300Z,15.30
2022-09-20T09:22:25.255Z,16.30
2022-09-20T09:25:24.363Z,17.00
2022-09-20T09:27:59.115Z,16.30
2022-09-20T09:30:34.489Z,15.70
2022-09-20T09:33:26.858Z,17.03
2022-09-20T09:35:54.516Z,19.03
2022-09-20T09:38:24.684Z,16.37
2022-09-20T09:40:59.629Z,16.77
2022-09-20T09:43:33.610Z,16.70
2022-09-20T09:46:21.569Z,15.93
2022-09-20T09:49:05.481Z,16.17
2022-09-20T09:51:34.107Z,15.73
2022-09-20T09:54:01.999Z,16.93
2022-09-20T09:56:42.167Z,17.07
2022-09-20T09:59:10.671Z,17.23
2022-09-20T10:02:11.081Z,17.63
2022-09-20T10:04:50.443Z,16.87
2022-09-20T10:07:40.317Z,18.10
2022-09-20T10:10:41.605Z,16.93
2022-09-20T10:13:20.223Z,16.70
2022-09-20T10:16:16.138Z,15.20
2022-09-20T10:19:13.081Z,16.03
2022-09-20T10:22:05.574Z,16.10
2022-09-20T10:25:03.189Z,15.03
2022-09-20T10:27:58.166Z,13.97
2022-09-20T10:30:47.227Z,13.10
2022-09-20T10:33:47.517Z,14.43
2022-09-20T10:36:25.993Z,15.10
2022-09-20T10:39:22.550Z,14.90
2022-09-20T10:42:35.921Z,14.27
2022-09-20T10:45:44.023Z,12.50
2022-09-20T10:48:31.623Z,13.82
2022-09-20T10:51:13.191Z,15.27
2022-09-20T10:54:06.000Z,14.43
2022-09-20T10:56:35.778Z,14.30
2022-09-20T10:59:25.007Z,14.98
2022-09-20T11:02:29.862Z,13.95
2022-09-20T11:05:16.674Z,14.13
2022-09-20T11:08:03.512Z,16.13
2022-09-20T11:10:39.157Z,12.55
2022-09-20T11:13:20.520Z,14.98
2022-09-20T11:15:52.672Z,14.25
2022-09-20T11:18:29.436Z,13.50
2022-09-20T11:21:19.276Z,13.70
2022-09-20T11:24:05.497Z,15.45
2022-09-20T11:26:37.914Z,13.88
2022-09-20T11:29:40.277Z,14.50
2022-09-20T11:32:24.998Z,14.15
2022-09-20T11:34:57.034Z,14.90
2022-09-20T11:37:30.212Z,12.88
2022-09-20T11:40:03.604Z,12.77
2022-09-20T11:42:35.870Z,11.18
2022-09-20T11:45:04.014Z,11.65
2022-09-20T11:47:54.555Z,9.30
2022-09-20T11:50:44.358Z,9.90
2022-09-20T11:53:36.460Z,11.05
2022-09-20T11:56:22.812Z,10.30
2022-09-20T11:59:01.471Z,10.25
2022-09-20T12:01:35.277Z,9.43
2022-09-20T12:07:24.062Z,9.27
2022-09-20T12:10:04.102Z,8.75
2022-09-20T12:12:42.007Z,7.75
2022-09-20T12:15:39.285Z,8.90
2022-09-20T12:18:33.924Z,8.60
2022-09-20T12:21:17.932Z,8.57
2022-09-20T12:24:07.342Z,8.30
2022-09-20T12:26:42.686Z,8.38
2022-09-20T12:29:24.995Z,7.90
2022-09-20T12:31:55.685Z,7.93
2022-09-20T12:34:22.682Z,7.93
2022-09-20T12:36:57.725Z,8.00
2022-09-20T12:39:29.932Z,7.88
2022-09-20T12:42:28.327Z,7.72
2022-09-20T12:45:18.526Z,7.63
2022-09-20T12:47:54.999Z,7.10
2022-09-20T12:50:41.389Z,7.72
2022-09-20T12:53:17.070Z,7.55
2022-09-20T12:55:56.274Z,6.30
2022-09-20T12:58:55.257Z,6.20
2022-09-20T13:01:34.148Z,5.78
2022-09-20T13:04:38.374Z,5.53
2022-09-20T13:07:33.693Z,5.50
2022-09-20T13:10:07.020Z,5.40
2022-09-20T13:12:37.513Z,5.25
2022-09-20T13:15:06.087Z,4.43
2022-09-20T13:17:34.268Z,4.93
2022-09-20T13:20:02.951Z,5.25
2022-09-20T13:22:43.419Z,5.65
2022-09-20T13:25:20.398Z,5.60
2022-09-20T13:28:01.982Z,5.40
2022-09-20T13:30:34.276Z,5.95
2022-09-20T13:33:23.386Z,5.13
2022-09-20T13:35:57.019Z,4.70
2022-09-20T13:38:29.991Z,4.70
2022-09-20T13:41:06.543Z,4.93
2022-09-20T13:43:53.118Z,5.30
2022-09-20T13:46:32.918Z,4.82
2022-09-20T13:49:08.893Z,4.82
2022-09-20T13:51:36.117Z,3.50
2022-09-20T13:54:25.758Z,2.50
2022-09-20T13:56:53.982Z,3.92
2022-09-20T13:59:20.857Z,4.00
2022-09-20T14:01:54.500Z,3.80
2022-09-20T14:04:24.533Z,4.07
2022-09-20T14:06:53.525Z,3.67
2022-09-20T14:09:35.079Z,3.60
2022-09-20T14:12:05.771Z,2.90
2022-09-20T14:14:34.989Z,3.40
2022-09-20T14:17:05.568Z,4.97
2022-09-20T14:19:37.268Z,3.10
2022-09-20T14:22:05.218Z,2.97
2022-09-20T14:24:35.606Z,2.72
2022-09-20T14:27:22.805Z,2.95
2022-09-20T14:29:54.251Z,3.33
2022-09-20T14:32:21.069Z,3.63
2022-09-20T14:35:29.042Z,4.13
2022-09-20T14:37:59.944Z,4.80
2022-09-20T14:40:28.484Z,4.72
2022-09-20T14:42:58.504Z,5.38
2022-09-20T14:45:32.003Z,5.15
2022-09-20T14:48:11.047Z,5.57
2022-09-20T14:50:46.327Z,5.97
2022-09-20T14:53:18.883Z,5.85
2022-09-20T14:56:32.777Z,5.95
2022-09-20T14:59:05.537Z,5.95
2022-09-20T15:01:34.367Z,6.05
2022-09-20T15:04:09.918Z,5.90
2022-09-20T15:06:40.186Z,6.15
2022-09-20T15:09:07.163Z,5.60
2022-09-20T15:11:33.997Z,4.55
2022-09-20T15:14:00.758Z,3.83
2022-09-20T15:16:28.595Z,2.65
2022-09-20T15:18:56.363Z,2.60
2022-09-20T15:21:23.837Z,2.20
2022-09-20T15:23:50.741Z,3.03
2022-09-20T15:26:18.288Z,1.98
2022-09-20T15:28:45.102Z,2.05
2022-09-20T15:31:13.770Z,1.50
2022-09-20T15:33:41.665Z,2.10
2022-09-20T15:36:08.833Z,1.40
2022-09-20T15:38:35.700Z,1.60
2022-09-20T15:41:04.246Z,1.80
2022-09-20T15:43:31.214Z,1.90
2022-09-20T15:46:03.112Z,1.70
2022-09-20T15:48:30.941Z,1.65
2022-09-20T15:51:03.885Z,1.92
2022-09-20T15:53:57.764Z,1.67
2022-09-20T15:56:34.709Z,1.80
2022-09-20T15:59:06.473Z,1.77
2022-09-20T16:01:37.667Z,2.20
2022-09-20T16:04:10.240Z,1.80
2022-09-20T16:06:38.730Z,2.00
2022-09-20T16:09:06.889Z,2.40
2022-09-20T16:11:34.595Z,2.45
2022-09-20T16:14:05.464Z,2.03
2022-09-20T16:16:39.770Z,2.20
2022-09-20T16:19:20.412Z,2.50
2022-09-20T16:21:58.254Z,2.50
2022-09-20T16:24:28.765Z,2.58
2022-09-20T16:26:56.337Z,2.55
2022-09-20T16:29:25.200Z,2.33
2022-09-20T16:31:53.913Z,2.28
2022-09-20T16:34:45.648Z,2.10
2022-09-20T16:37:17.290Z,2.53
2022-09-20T16:39:44.475Z,3.10
2022-09-20T16:42:13.301Z,2.60
2022-09-20T16:44:43.024Z,2.28
2022-09-20T16:47:22.408Z,2.10
2022-09-20T16:49:50.670Z,2.00
2022-09-20T16:52:18.114Z,2.20
2022-09-20T16:54:45.784Z,2.10
2022-09-20T16:57:16.910Z,2.60
2022-09-20T16:59:44.424Z,2.83
2022-09-20T17:02:12.586Z,2.50
2022-09-20T17:04:39.556Z,2.83
2022-09-20T17:07:06.695Z,2.60
2022-09-20T17:09:33.581Z,2.97
2022-09-20T17:12:01.821Z,3.20
2022-09-20T17:14:30.149Z,3.40
2022-09-20T17:16:57.730Z,2.70
2022-09-20T17:19:26.968Z,2.70
2022-09-20T17:21:53.839Z,2.20
2022-09-20T17:24:22.762Z,3.03
2022-09-20T17:26:50.726Z,2.90
2022-09-20T17:29:21.605Z,3.30
2022-09-20T17:31:55.575Z,3.35
2022-09-20T17:34:25.383Z,3.10
2022-09-20T17:36:55.251Z,4.10
2022-09-20T17:39:22.287Z,3.65
2022-09-20T17:41:50.048Z,3.08
2022-09-20T17:44:17.249Z,3.30
2022-09-20T17:46:46.274Z,3.53
2022-09-20T17:49:16.710Z,3.47
2022-09-20T17:51:46.340Z,4.10
2022-09-20T17:54:14.493Z,3.92
2022-09-20T17:56:47.143Z,4.88
2022-09-20T17:59:16.337Z,4.95
2022-09-20T18:01:44.557Z,5.00
2022-09-20T18:04:13.110Z,4.30
2022-09-20T18:06:48.537Z,4.20
2022-09-20T18:09:20.486Z,4.40
2022-09-20T18:11:52.866Z,3.53
2022-09-20T18:14:23.318Z,3.83
2022-09-20T18:16:55.918Z,3.72
2022-09-20T18:19:23.117Z,4.00
2022-09-20T18:21:50.675Z,3.75
2022-09-20T18:24:17.907Z,3.55
2022-09-20T18:26:44.998Z,3.38
2022-09-20T18:29:14.775Z,3.60
2022-09-20T18:31:45.709Z,3.83
2022-09-20T18:34:19.522Z,4.05
2022-09-20T18:36:56.095Z,4.57
2022-09-20T18:39:25.986Z,6.13
2022-09-20T18:41:53.925Z,4.15
2022-09-20T18:44:22.884Z,3.90
2022-09-20T18:46:53.610Z,4.32
2022-09-20T18:49:22.011Z,4.40
2022-09-20T18:51:49.919Z,4.20
2022-09-20T18:54:20.967Z,4.45
2022-09-20T18:56:50.445Z,4.25
2022-09-20T18:59:22.877Z,3.90
2022-09-20T19:01:53.353Z,3.50
2022-09-20T19:04:49.670Z,3.17
2022-09-20T19:07:28.147Z,3.10
2022-09-20T19:10:06.906Z,3.47
2022-09-20T19:12:50.082Z,3.60
2022-09-20T19:15:36.487Z,4.07
2022-09-20T19:18:22.963Z,4.13
2022-09-20T19:21:09.448Z,4.90
2022-09-20T19:23:43.811Z,5.10
2022-09-20T19:26:22.114Z,5.57
2022-09-20T19:28:55.205Z,5.57
2022-09-20T19:31:27.846Z,5.57
2022-09-20T19:33:56.869Z,5.90
2022-09-20T19:36:32.331Z,5.90
2022-09-20T19:39:13.509Z,6.40
2022-09-20T19:41:54.989Z,6.00
2022-09-20T19:44:47.392Z,6.50
2022-09-20T19:47:23.845Z,6.60
2022-09-20T19:49:56.755Z,6.37
2022-09-20T19:52:23.983Z,6.93
2022-09-20T19:54:51.973Z,6.23
2022-09-20T19:57:22.500Z,7.10
2022-09-20T19:59:50.986Z,6.70
2022-09-20T20:02:18.595Z,6.97
2022-09-20T20:04:46.183Z,6.83
2022-09-20T20:07:22.279Z,6.40
2022-09-20T20:10:28.948Z,6.70
2022-09-20T20:13:34.846Z,7.03
2022-09-20T20:16:06.605Z,6.67
2022-09-20T20:18:41.644Z,7.37
2022-09-20T20:21:18.692Z,7.20
2022-09-20T20:24:33.453Z,6.47
2022-09-20T20:27:00.495Z,6.43
2022-09-20T20:29:27.375Z,6.53
2022-09-20T20:31:54.287Z,7.37
2022-09-20T20:34:21.319Z,8.07
2022-09-20T20:36:50.223Z,7.80
2022-09-20T20:39:17.865Z,8.63
2022-09-20T20:41:46.062Z,9.23
2022-09-20T20:44:13.089Z,9.60
2022-09-20T20:46:39.927Z,8.50
2022-09-20T20:49:06.726Z,8.87
2022-09-20T20:51:33.568Z,8.80
2022-09-20T20:54:00.411Z,8.37
2022-09-20T20:56:31.431Z,8.40
2022-09-20T20:59:02.200Z,8.47
2022-09-20T21:01:36.410Z,8.20
